Barstow, Texas
Current Conditions -  °F | °C
As of 7:15 AM on Friday 24 Oct 2014 (Local Time) from KPEQ Reporting Station
Haze Haze  
Wind Chill: 12°   Ceiling: 100
Heat Index: 12°   Visibility: 4mi
Dew Point: 12°   Wind: 0mph
Humidity: 96%   Direction: NA
Pressure: 30.15"   Gusts: NA
Location:  31.46°N, 103.39°W
Report Text: KPEQ 241215Z AUTO 00000KT 4SM BR BKN001 12/12 A3015 RMK AO2 T01210115
Loading
Personal Weather Stations






























Interactive Weather Map
Tropical Storm Tracking
New forecast layout! Learn more

10-Day Weather Forecast

Advertisements
Track Severe Weather on mobile